createdAt,value
2022-10-05T00:01:24.297Z,2.20
2022-10-05T00:04:18.716Z,2.70
2022-10-05T00:07:14.951Z,2.60
2022-10-05T00:10:15.840Z,2.70
2022-10-05T00:13:07.634Z,2.60
2022-10-05T00:16:06.976Z,2.30
2022-10-05T00:18:57.120Z,2.40
2022-10-05T00:21:47.159Z,2.80
2022-10-05T00:24:37.440Z,2.90
2022-10-05T00:27:32.873Z,2.50
2022-10-05T00:30:24.886Z,2.70
2022-10-05T00:33:15.181Z,2.60
2022-10-05T00:36:07.729Z,2.80
2022-10-05T00:38:58.640Z,2.90
2022-10-05T00:42:03.176Z,3.30
2022-10-05T00:44:57.576Z,2.90
2022-10-05T00:47:58.778Z,3.20
2022-10-05T00:51:05.257Z,3.40
2022-10-05T00:54:12.617Z,3.20
2022-10-05T00:57:20.288Z,3.20
2022-10-05T01:00:14.507Z,3.50
2022-10-05T01:03:15.548Z,3.90
2022-10-05T01:06:14.062Z,3.10
2022-10-05T01:09:15.360Z,3.30
2022-10-05T01:12:15.309Z,3.30
2022-10-05T01:15:10.446Z,3.10
2022-10-05T01:18:07.014Z,2.90
2022-10-05T01:21:04.667Z,3.10
2022-10-05T01:24:27.962Z,3.70
2022-10-05T01:27:38.265Z,3.10
2022-10-05T01:30:31.562Z,3.00
2022-10-05T01:33:31.850Z,3.10
2022-10-05T01:36:29.820Z,3.40
2022-10-05T01:39:26.249Z,3.10
2022-10-05T01:42:29.967Z,3.20
2022-10-05T01:45:29.969Z,3.10
2022-10-05T01:48:27.671Z,3.30
2022-10-05T01:51:28.805Z,3.20
2022-10-05T01:54:32.016Z,3.40
2022-10-05T01:57:35.871Z,3.30
2022-10-05T02:00:26.611Z,3.20
2022-10-05T02:03:23.470Z,3.60
2022-10-05T02:06:18.900Z,3.50
2022-10-05T02:09:16.352Z,3.00
2022-10-05T02:12:13.278Z,3.00
2022-10-05T02:15:13.897Z,3.20
2022-10-05T02:18:11.597Z,3.20
2022-10-05T02:21:04.277Z,2.80
2022-10-05T02:23:59.903Z,2.80
2022-10-05T02:26:52.581Z,2.90
2022-10-05T02:29:48.279Z,2.90
2022-10-05T02:32:42.606Z,2.80
2022-10-05T02:35:33.600Z,2.90
2022-10-05T02:38:32.558Z,3.10
2022-10-05T02:41:34.570Z,3.40
2022-10-05T02:44:32.446Z,3.30
2022-10-05T02:47:29.890Z,3.30
2022-10-05T02:50:27.283Z,2.90
2022-10-05T02:53:27.338Z,3.30
2022-10-05T02:56:27.486Z,3.10
2022-10-05T02:59:24.625Z,3.50
2022-10-05T03:02:20.618Z,3.30
2022-10-05T03:05:19.921Z,3.30
2022-10-05T03:08:16.918Z,3.30
2022-10-05T03:11:16.035Z,3.30
2022-10-05T03:14:14.710Z,3.20
2022-10-05T03:17:14.067Z,3.20
2022-10-05T03:20:18.903Z,3.00
2022-10-05T03:23:15.582Z,3.40
2022-10-05T03:26:19.942Z,3.60
2022-10-05T03:29:20.414Z,3.40
2022-10-05T03:32:19.949Z,3.60
2022-10-05T03:35:16.284Z,3.50
2022-10-05T03:38:15.137Z,3.30
2022-10-05T03:41:13.786Z,3.60
2022-10-05T03:44:19.773Z,3.10
2022-10-05T03:47:15.697Z,3.80
2022-10-05T03:50:24.820Z,3.40
2022-10-05T03:53:20.609Z,3.50
2022-10-05T03:56:17.609Z,3.30
2022-10-05T03:59:16.230Z,3.40
2022-10-05T04:02:13.867Z,3.50
2022-10-05T04:05:07.546Z,3.80
2022-10-05T04:08:01.114Z,3.40
2022-10-05T04:10:53.566Z,3.30
2022-10-05T04:13:53.025Z,3.40
2022-10-05T04:16:46.396Z,3.70
2022-10-05T04:19:41.969Z,3.40
2022-10-05T04:22:38.650Z,3.60
2022-10-05T04:25:33.526Z,3.60
2022-10-05T04:28:32.142Z,3.80
2022-10-05T04:31:36.973Z,3.40
2022-10-05T04:34:51.016Z,3.60
2022-10-05T04:37:49.764Z,3.90
2022-10-05T04:41:02.807Z,3.60
2022-10-05T04:44:10.137Z,3.70
2022-10-05T04:47:18.428Z,3.20
2022-10-05T04:50:29.702Z,3.50
2022-10-05T04:53:34.846Z,3.50
2022-10-05T04:56:34.614Z,3.30
2022-10-05T04:59:50.724Z,3.40
2022-10-05T05:03:02.910Z,3.70
2022-10-05T05:06:16.960Z,3.70
2022-10-05T05:09:25.018Z,4.00
2022-10-05T05:12:26.586Z,3.90
2022-10-05T05:15:29.658Z,4.00
2022-10-05T05:18:54.638Z,4.10
2022-10-05T05:21:53.227Z,3.90
2022-10-05T05:24:57.767Z,3.10
2022-10-05T05:27:54.824Z,3.70
2022-10-05T05:30:49.874Z,3.90
2022-10-05T05:33:49.101Z,4.00
2022-10-05T05:36:55.888Z,3.80
2022-10-05T05:39:57.643Z,4.20
2022-10-05T05:42:55.784Z,4.20
2022-10-05T05:45:53.642Z,4.20
2022-10-05T05:48:45.746Z,3.60
2022-10-05T05:51:40.523Z,3.70
2022-10-05T05:54:37.774Z,4.70
2022-10-05T05:57:33.512Z,4.80
2022-10-05T06:00:26.034Z,4.50
2022-10-05T06:03:24.162Z,5.00
2022-10-05T06:06:17.029Z,5.00
2022-10-05T06:09:22.422Z,4.90
2022-10-05T06:12:23.744Z,5.20
2022-10-05T06:15:24.326Z,5.30
2022-10-05T06:18:17.061Z,5.20
2022-10-05T06:21:14.222Z,5.10
2022-10-05T06:24:10.379Z,4.80
2022-10-05T06:27:26.014Z,4.70
2022-10-05T06:30:18.760Z,4.50
2022-10-05T06:33:24.085Z,5.20
2022-10-05T06:36:27.245Z,4.90
2022-10-05T06:39:47.187Z,5.00
2022-10-05T06:42:54.213Z,4.90
2022-10-05T06:46:07.265Z,5.30
2022-10-05T06:49:24.385Z,5.70
2022-10-05T06:52:44.418Z,5.40
2022-10-05T06:55:47.004Z,5.50
2022-10-05T06:58:51.105Z,5.10
2022-10-05T07:01:54.123Z,5.00
2022-10-05T07:05:13.261Z,5.30
2022-10-05T07:08:05.528Z,4.40
2022-10-05T07:11:05.710Z,5.80
2022-10-05T07:14:22.492Z,5.10
2022-10-05T07:17:27.271Z,5.30
2022-10-05T07:20:27.933Z,5.30
2022-10-05T07:23:30.404Z,5.10
2022-10-05T07:26:24.517Z,6.70
2022-10-05T07:29:24.449Z,6.00
2022-10-05T07:32:23.673Z,5.10
2022-10-05T07:35:37.690Z,7.00
2022-10-05T07:38:32.200Z,7.40
2022-10-05T07:41:32.549Z,6.80
2022-10-05T07:44:32.176Z,6.90
2022-10-05T07:47:32.928Z,6.80
2022-10-05T07:50:27.787Z,7.30
2022-10-05T07:53:21.386Z,7.70
2022-10-05T07:56:21.988Z,7.30
2022-10-05T07:59:23.651Z,6.60
2022-10-05T08:02:23.798Z,6.30
2022-10-05T08:05:20.246Z,6.50
2022-10-05T08:08:20.547Z,6.30
2022-10-05T08:11:18.534Z,5.90
2022-10-05T08:14:20.487Z,6.50
2022-10-05T08:17:23.986Z,6.10
2022-10-05T08:20:40.093Z,6.40
2022-10-05T08:23:38.880Z,6.50
2022-10-05T08:26:37.653Z,6.90
2022-10-05T08:29:33.689Z,6.80
2022-10-05T08:32:26.886Z,7.20
2022-10-05T08:35:28.404Z,6.60
2022-10-05T08:38:21.729Z,6.80
2022-10-05T08:41:42.451Z,7.00
2022-10-05T08:45:05.925Z,6.80
2022-10-05T08:48:26.864Z,7.00
2022-10-05T08:51:44.602Z,6.30
2022-10-05T08:54:57.807Z,7.00
2022-10-05T08:58:26.694Z,6.70
2022-10-05T09:01:27.268Z,6.10
2022-10-05T09:04:30.378Z,7.00
2022-10-05T09:07:53.836Z,6.20
2022-10-05T09:11:03.806Z,5.50
2022-10-05T09:14:26.176Z,5.40
2022-10-05T09:17:42.374Z,5.90
2022-10-05T09:20:47.091Z,5.00
2022-10-05T09:23:44.931Z,5.50
2022-10-05T09:26:59.239Z,5.20
2022-10-05T09:30:15.595Z,5.20
2022-10-05T09:33:42.610Z,5.40
2022-10-05T09:37:11.692Z,5.10
2022-10-05T09:40:40.606Z,5.60
2022-10-05T09:44:00.031Z,5.50
2022-10-05T09:47:11.544Z,5.80
2022-10-05T09:50:20.734Z,5.40
2022-10-05T09:53:38.590Z,5.90
2022-10-05T09:57:04.219Z,5.60
2022-10-05T10:00:16.555Z,5.00
2022-10-05T10:03:27.499Z,5.90
2022-10-05T10:06:26.278Z,5.10
2022-10-05T10:09:29.699Z,5.00
2022-10-05T10:12:35.245Z,5.20
2022-10-05T10:15:52.901Z,5.80
2022-10-05T10:19:07.875Z,5.60
2022-10-05T10:22:22.362Z,5.20
2022-10-05T10:25:29.803Z,5.10
2022-10-05T10:29:10.023Z,5.40
2022-10-05T10:32:34.520Z,5.00
2022-10-05T10:35:35.373Z,4.60
2022-10-05T10:38:58.696Z,4.60
2022-10-05T10:42:05.230Z,4.20
2022-10-05T10:45:19.957Z,5.80
2022-10-05T10:48:33.758Z,5.30
2022-10-05T10:51:50.243Z,5.70
2022-10-05T10:55:00.140Z,4.90
2022-10-05T10:58:22.802Z,4.80
2022-10-05T11:01:34.074Z,5.20
2022-10-05T11:04:56.269Z,5.20
2022-10-05T11:08:17.386Z,4.40
2022-10-05T11:11:20.634Z,4.40
2022-10-05T11:14:51.736Z,3.80
2022-10-05T11:17:59.407Z,3.80
2022-10-05T11:21:21.773Z,4.00
2022-10-05T11:24:41.076Z,4.00
2022-10-05T11:28:01.106Z,3.70
2022-10-05T11:31:13.855Z,3.50
2022-10-05T11:34:26.604Z,3.70
2022-10-05T11:37:58.998Z,3.50
2022-10-05T11:41:15.156Z,3.30
2022-10-05T11:44:29.089Z,3.40
2022-10-05T11:47:25.645Z,3.40
2022-10-05T11:50:22.304Z,3.70
2022-10-05T11:53:19.705Z,3.70
2022-10-05T11:56:21.997Z,3.50
2022-10-05T11:59:20.929Z,3.80
2022-10-05T12:02:41.392Z,4.40
2022-10-05T12:05:39.471Z,3.70
2022-10-05T12:08:40.885Z,4.50
2022-10-05T12:11:47.675Z,4.00
2022-10-05T12:14:48.825Z,3.80
2022-10-05T12:17:44.042Z,4.00
2022-10-05T12:20:39.917Z,4.10
2022-10-05T12:23:37.278Z,4.30
2022-10-05T12:26:32.396Z,4.30
2022-10-05T12:29:28.662Z,4.00
2022-10-05T12:32:24.115Z,3.70
2022-10-05T12:35:43.559Z,3.90
2022-10-05T12:38:40.073Z,3.70
2022-10-05T12:41:36.686Z,4.10
2022-10-05T12:44:43.957Z,4.10
2022-10-05T12:47:43.147Z,4.10
2022-10-05T12:50:40.271Z,4.10
2022-10-05T12:53:43.829Z,4.20
2022-10-05T12:56:43.217Z,4.20
2022-10-05T12:59:43.737Z,4.10
2022-10-05T13:02:42.392Z,3.90
2022-10-05T13:05:38.787Z,4.30
2022-10-05T13:08:39.066Z,4.80
2022-10-05T13:11:37.346Z,4.60
2022-10-05T13:14:46.703Z,5.70
2022-10-05T13:17:45.836Z,5.70
2022-10-05T13:20:44.213Z,6.40
2022-10-05T13:23:43.663Z,6.00
2022-10-05T13:26:37.542Z,6.10
2022-10-05T13:29:34.417Z,4.50
2022-10-05T13:32:29.508Z,4.30
2022-10-05T13:35:32.634Z,4.40
2022-10-05T13:38:36.281Z,4.20
2022-10-05T13:41:35.223Z,4.30
2022-10-05T13:44:33.819Z,4.10
2022-10-05T13:47:30.396Z,4.40
2022-10-05T13:50:23.565Z,4.10
2022-10-05T13:53:21.600Z,4.70
2022-10-05T13:56:22.420Z,4.20
2022-10-05T13:59:24.634Z,4.00
2022-10-05T14:02:21.730Z,4.30
2022-10-05T14:05:21.117Z,4.50
2022-10-05T14:08:18.911Z,4.60
2022-10-05T14:11:27.612Z,4.60
2022-10-05T14:14:26.533Z,4.40
2022-10-05T14:17:19.324Z,4.80
2022-10-05T14:20:23.909Z,4.40
2022-10-05T14:23:26.032Z,4.30
2022-10-05T14:26:34.110Z,4.10
2022-10-05T14:29:35.260Z,3.80
2022-10-05T14:32:27.335Z,3.70
2022-10-05T14:35:20.797Z,3.90
2022-10-05T14:38:22.202Z,4.00
2022-10-05T14:41:25.253Z,4.00
2022-10-05T14:47:25.746Z,3.90
2022-10-05T14:50:25.405Z,3.50
2022-10-05T14:53:21.242Z,3.60
2022-10-05T14:56:33.821Z,3.30
2022-10-05T14:59:46.830Z,3.60
2022-10-05T15:03:03.709Z,3.80
2022-10-05T15:05:58.876Z,3.40
2022-10-05T15:09:17.423Z,3.60
2022-10-05T15:12:08.954Z,3.60
2022-10-05T15:15:05.971Z,3.90
2022-10-05T15:18:00.948Z,4.00
2022-10-05T15:20:56.904Z,3.40
2022-10-05T15:23:53.784Z,3.80
2022-10-05T15:26:52.822Z,3.70
2022-10-05T15:30:00.617Z,3.90
2022-10-05T15:33:05.326Z,4.00
2022-10-05T15:36:20.313Z,3.70
2022-10-05T15:39:19.717Z,3.40
2022-10-05T15:42:15.333Z,3.60
2022-10-05T15:45:15.218Z,3.80
2022-10-05T15:48:09.291Z,3.70
2022-10-05T15:51:07.230Z,3.70
2022-10-05T15:54:17.415Z,3.60
2022-10-05T15:57:16.557Z,3.40
2022-10-05T16:00:13.371Z,3.60
2022-10-05T16:03:13.249Z,4.10
2022-10-05T16:06:29.363Z,4.70
2022-10-05T16:09:38.727Z,4.90
2022-10-05T16:12:47.390Z,4.20
2022-10-05T16:15:42.964Z,4.10
2022-10-05T16:18:57.622Z,4.10
2022-10-05T16:21:56.589Z,5.20
2022-10-05T16:25:03.410Z,5.10
2022-10-05T16:28:08.175Z,4.10
2022-10-05T16:31:04.012Z,4.10
2022-10-05T16:34:06.659Z,3.90
2022-10-05T16:37:05.014Z,3.70
2022-10-05T16:40:00.886Z,3.90
2022-10-05T16:43:02.595Z,4.30
2022-10-05T16:46:04.527Z,4.40
2022-10-05T16:49:04.290Z,3.50
2022-10-05T16:52:00.868Z,3.90
2022-10-05T16:54:54.939Z,3.60
2022-10-05T16:57:52.602Z,3.80
2022-10-05T17:01:00.878Z,3.80
2022-10-05T17:04:05.642Z,3.50
2022-10-05T17:07:17.157Z,4.60
2022-10-05T17:10:27.867Z,5.20
2022-10-05T17:13:36.493Z,3.70
2022-10-05T17:16:37.561Z,3.30
2022-10-05T17:22:30.347Z,3.30
2022-10-05T17:25:29.159Z,3.40
2022-10-05T17:28:37.115Z,3.70
2022-10-05T17:31:27.692Z,3.80
2022-10-05T17:34:29.902Z,3.70
2022-10-05T17:37:35.568Z,3.80
2022-10-05T17:40:38.975Z,4.30
2022-10-05T17:43:30.796Z,3.90
2022-10-05T17:46:40.246Z,4.00
2022-10-05T17:50:17.572Z,3.90
2022-10-05T17:53:49.246Z,3.50
2022-10-05T17:57:19.334Z,3.70
2022-10-05T18:00:50.345Z,3.90
2022-10-05T18:03:43.056Z,4.50
2022-10-05T18:06:38.340Z,3.80
2022-10-05T18:09:52.292Z,4.50
2022-10-05T18:12:51.677Z,5.30
2022-10-05T18:15:51.652Z,8.70
2022-10-05T18:18:59.377Z,7.50
2022-10-05T18:22:05.996Z,5.70
2022-10-05T18:25:05.968Z,6.90
2022-10-05T18:28:15.008Z,5.50
2022-10-05T18:31:23.653Z,5.20
2022-10-05T18:34:30.549Z,5.10
2022-10-05T18:37:31.733Z,4.70
2022-10-05T18:40:43.662Z,5.00
2022-10-05T18:43:41.173Z,4.80
2022-10-05T18:46:43.949Z,4.30
2022-10-05T18:49:49.958Z,4.30
2022-10-05T18:52:51.678Z,5.00
2022-10-05T18:55:47.364Z,4.40
2022-10-05T18:58:44.093Z,4.40
2022-10-05T19:01:52.322Z,4.50
2022-10-05T19:04:54.816Z,4.80
2022-10-05T19:07:59.472Z,4.60
2022-10-05T19:10:56.548Z,4.20
2022-10-05T19:13:54.899Z,3.90
2022-10-05T19:16:55.873Z,5.10
2022-10-05T19:20:04.267Z,4.40
2022-10-05T19:23:15.394Z,4.20
2022-10-05T19:26:15.284Z,4.70
2022-10-05T19:29:16.133Z,4.20
2022-10-05T19:32:17.675Z,4.20
2022-10-05T19:35:18.318Z,4.20
2022-10-05T19:38:22.840Z,3.80
2022-10-05T19:41:18.577Z,3.80
2022-10-05T19:44:29.652Z,3.70
2022-10-05T19:47:30.911Z,3.60
2022-10-05T19:50:29.798Z,4.10
2022-10-05T19:53:27.898Z,4.20
2022-10-05T19:56:25.247Z,3.90
2022-10-05T19:59:19.439Z,4.30
2022-10-05T20:02:13.145Z,4.00
2022-10-05T20:05:10.102Z,4.00
2022-10-05T20:08:01.469Z,4.20
2022-10-05T20:11:09.507Z,4.30
2022-10-05T20:14:20.166Z,4.30
2022-10-05T20:17:46.790Z,4.00
2022-10-05T20:20:45.808Z,4.10
2022-10-05T20:23:38.863Z,4.00
2022-10-05T20:27:01.145Z,3.90
2022-10-05T20:29:51.856Z,4.30
2022-10-05T20:32:42.186Z,4.10
2022-10-05T20:35:32.405Z,4.00
2022-10-05T20:38:23.016Z,3.60
2022-10-05T20:41:13.827Z,3.80
2022-10-05T20:44:03.620Z,3.50
2022-10-05T20:46:55.780Z,3.90
2022-10-05T20:49:46.712Z,3.90
2022-10-05T20:52:37.879Z,3.80
2022-10-05T20:55:31.502Z,3.70
2022-10-05T20:58:21.879Z,3.80
2022-10-05T21:01:20.238Z,4.00
2022-10-05T21:04:10.367Z,3.60
2022-10-05T21:07:01.141Z,3.20
2022-10-05T21:09:51.635Z,3.60
2022-10-05T21:12:42.211Z,3.70
2022-10-05T21:15:32.642Z,5.80
2022-10-05T21:18:22.994Z,3.90
2022-10-05T21:21:13.215Z,3.60
2022-10-05T21:24:02.986Z,3.30
2022-10-05T21:26:53.629Z,3.30
2022-10-05T21:29:44.236Z,3.20
2022-10-05T21:32:34.166Z,3.50
2022-10-05T21:35:24.331Z,3.30
2022-10-05T21:38:14.341Z,3.10
2022-10-05T21:41:04.952Z,3.20
2022-10-05T21:43:55.509Z,3.00
2022-10-05T21:46:45.934Z,3.30
2022-10-05T21:49:36.960Z,3.40
2022-10-05T21:52:27.371Z,3.30
2022-10-05T21:55:18.015Z,3.40
2022-10-05T21:58:08.606Z,3.30
2022-10-05T22:00:58.690Z,3.30
2022-10-05T22:03:48.310Z,2.90
2022-10-05T22:06:38.663Z,3.00
2022-10-05T22:09:28.549Z,3.20
2022-10-05T22:12:20.292Z,4.00
2022-10-05T22:15:12.335Z,3.80
2022-10-05T22:18:02.722Z,3.20
2022-10-05T22:20:54.213Z,3.20
2022-10-05T22:23:46.160Z,3.50
2022-10-05T22:26:36.235Z,3.30
2022-10-05T22:29:26.600Z,3.60
2022-10-05T22:32:17.606Z,3.20
2022-10-05T22:35:11.780Z,2.90
2022-10-05T22:38:01.887Z,3.00
2022-10-05T22:40:52.162Z,3.20
2022-10-05T22:43:42.902Z,3.40
2022-10-05T22:46:33.153Z,3.70
2022-10-05T22:49:23.261Z,3.80
2022-10-05T22:52:13.272Z,3.10
2022-10-05T22:55:03.725Z,3.20
2022-10-05T22:57:53.607Z,3.70
2022-10-05T23:00:59.095Z,3.30
2022-10-05T23:03:49.791Z,3.40
2022-10-05T23:06:39.638Z,3.10
2022-10-05T23:09:29.720Z,3.30
2022-10-05T23:12:19.952Z,3.40
2022-10-05T23:15:12.305Z,3.40
2022-10-05T23:18:02.268Z,3.50
2022-10-05T23:20:57.440Z,3.30
2022-10-05T23:23:51.181Z,3.00
2022-10-05T23:26:41.409Z,3.00
2022-10-05T23:29:31.641Z,4.70
2022-10-05T23:32:22.029Z,3.40
2022-10-05T23:35:13.634Z,3.10
2022-10-05T23:38:03.794Z,2.90
2022-10-05T23:40:53.731Z,2.90
2022-10-05T23:43:44.604Z,2.90
2022-10-05T23:46:34.481Z,3.00
2022-10-05T23:49:24.243Z,3.00
2022-10-05T23:52:14.690Z,3.00
2022-10-05T23:55:05.136Z,2.70
2022-10-05T23:57:55.131Z,2.80
